Time;durP1;ratioP1;P1;durP2;ratioP2;P2;SDS_P1;SDS_P2;PMS_P1;PMS_P2;Temp;Humidity;BMP_temperature;BMP_pressure;BME280_temperature;BME280_humidity;BME280_pressure;Samples;Min_cycle;Max_cycle;Signal;HPM_P1;HPM_P2
2021/10/28 00:12:13;;;;;;;23.70;13.70;;;;;;;10.25;92.72;101930.97;5055728;28;20064;-72
2021/10/28 00:14:40;;;;;;;21.02;12.80;;;;;;;10.24;92.56;101935.31;5055058;28;20375;-72
2021/10/28 00:17:15;;;;;;;27.70;13.15;;;;;;;10.29;92.42;101932.28;5036754;28;20031;-71
2021/10/28 00:19:41;;;;;;;25.85;13.05;;;;;;;10.28;91.85;101923.72;5036622;28;20028;-71
2021/10/28 00:22:07;;;;;;;26.35;13.27;;;;;;;10.28;92.35;101923.72;5054631;28;20025;-72
2021/10/28 00:24:33;;;;;;;22.55;12.10;;;;;;;10.31;92.23;101922.59;5036690;28;20071;-72
2021/10/28 00:26:58;;;;;;;21.90;12.23;;;;;;;10.35;92.58;101923.91;5036683;28;20455;-72
2021/10/28 00:29:26;;;;;;;25.17;13.38;;;;;;;10.31;92.26;101912.28;5036687;28;20032;-72
2021/10/28 00:31:52;;;;;;;22.35;12.68;;;;;;;10.32;92.31;101925.03;5054422;28;20032;-72
2021/10/28 00:34:18;;;;;;;23.48;12.77;;;;;;;10.29;92.16;101920.16;5036792;28;20044;-72
2021/10/28 00:36:45;;;;;;;25.95;12.90;;;;;;;10.35;92.26;101921.31;5036390;28;20033;-72
2021/10/28 00:39:11;;;;;;;22.05;12.90;;;;;;;10.34;91.81;101923.09;5054283;28;20490;-72
2021/10/28 00:41:36;;;;;;;20.70;13.18;;;;;;;10.26;92.15;101920.44;5054461;28;20025;-72
2021/10/28 00:44:03;;;;;;;25.23;12.82;;;;;;;10.25;92.19;101924.00;5036381;28;20028;-72
2021/10/28 00:46:31;;;;;;;23.05;12.63;;;;;;;10.21;92.42;101914.13;5036290;28;20064;-72
2021/10/28 00:48:57;;;;;;;22.08;12.50;;;;;;;10.21;92.42;101914.13;5054056;28;20133;-73
2021/10/28 00:51:26;;;;;;;24.33;12.43;;;;;;;10.19;92.36;101908.34;5054099;28;20031;-72
2021/10/28 00:53:52;;;;;;;19.80;12.88;;;;;;;10.17;92.41;101905.91;5036234;28;20074;-72
2021/10/28 00:56:20;;;;;;;24.58;12.38;;;;;;;10.12;92.57;101908.94;5054205;28;20029;-72
2021/10/28 00:58:46;;;;;;;22.20;12.85;;;;;;;10.13;92.39;101908.00;5053899;28;20506;-72
2021/10/28 01:01:11;;;;;;;23.02;12.50;;;;;;;10.08;92.49;101917.97;5053946;28;20020;-72
2021/10/28 01:03:39;;;;;;;26.33;12.93;;;;;;;10.05;92.88;101912.31;5053909;28;20025;-72
2021/10/28 01:06:06;;;;;;;23.23;13.40;;;;;;;10.07;92.71;101907.78;5053856;28;20025;-72
2021/10/28 01:08:36;;;;;;;22.13;12.07;;;;;;;10.07;92.65;101907.78;5035972;28;20032;-72
2021/10/28 01:11:01;;;;;;;25.00;12.55;;;;;;;10.10;92.33;101910.88;5053436;28;20479;-72
2021/10/28 01:13:27;;;;;;;20.02;12.05;;;;;;;10.05;92.66;101907.16;5053173;28;20028;-72
2021/10/28 01:15:54;;;;;;;22.70;12.60;;;;;;;10.06;92.79;101899.22;5053573;28;20025;-72
2021/10/28 01:18:19;;;;;;;21.58;12.05;;;;;;;10.08;92.53;101910.22;5053643;28;20486;-72
2021/10/28 01:20:47;;;;;;;20.80;12.07;;;;;;;10.12;92.29;101908.94;5053460;28;20049;-72
2021/10/28 01:23:15;;;;;;;20.48;12.07;;;;;;;10.17;92.17;101911.06;5053534;28;20482;-72
2021/10/28 01:25:49;;;;;;;26.10;12.02;;;;;;;10.19;92.19;101916.09;5053518;28;20045;-71
2021/10/28 01:28:15;;;;;;;20.75;11.98;;;;;;;10.08;92.54;101901.66;5053554;28;20035;-72
2021/10/28 01:30:45;;;;;;;22.88;12.57;;;;;;;10.08;92.60;101907.66;5053475;28;20061;-72
2021/10/28 01:33:10;;;;;;;20.75;11.73;;;;;;;10.05;92.39;101909.72;5035562;28;20032;-72
2021/10/28 01:35:36;;;;;;;20.50;11.77;;;;;;;10.07;92.28;101906.03;5053358;28;20025;-72
2021/10/28 01:38:01;;;;;;;22.13;11.40;;;;;;;10.05;92.49;101913.13;5053700;28;20501;-72
2021/10/28 01:40:27;;;;;;;18.33;11.60;;;;;;;10.00;92.40;101914.56;5053300;28;20028;-70
2021/10/28 01:42:52;;;;;;;23.40;12.43;;;;;;;9.99;92.44;101900.84;5053495;28;20028;-72
2021/10/28 01:45:18;;;;;;;22.25;12.70;;;;;;;9.92;92.87;101899.81;5053334;28;20020;-72
2021/10/28 01:47:44;;;;;;;18.92;11.60;;;;;;;9.92;92.62;101900.63;5053232;28;20025;-72
2021/10/28 01:50:11;;;;;;;20.70;11.98;;;;;;;9.86;92.65;101908.19;5053834;28;20347;-72
2021/10/28 01:52:38;;;;;;;25.23;12.75;;;;;;;9.81;93.04;101900.94;5035370;28;20025;-71
2021/10/28 01:55:06;;;;;;;20.00;11.40;;;;;;;9.79;92.94;101897.69;5035330;28;20021;-72
2021/10/28 01:57:31;;;;;;;23.33;12.45;;;;;;;9.78;93.00;101901.22;5035265;28;20458;-72
2021/10/28 01:59:56;;;;;;;27.52;12.63;;;;;;;9.77;92.93;101891.84;5053164;28;20025;-73
2021/10/28 02:02:22;;;;;;;26.60;11.75;;;;;;;9.78;93.08;101883.16;5053179;28;20360;-71
2021/10/28 02:04:47;;;;;;;19.98;12.10;;;;;;;9.81;92.70;101892.34;5053159;28;20108;-72
2021/10/28 02:07:13;;;;;;;22.13;12.18;;;;;;;9.73;92.85;101884.59;5053127;28;20017;-71
2021/10/28 02:09:38;;;;;;;19.98;12.02;;;;;;;9.69;93.06;101887.44;5035271;28;20025;-71
2021/10/28 02:12:05;;;;;;;25.08;13.15;;;;;;;9.71;93.03;101876.97;5035251;28;20028;-72
2021/10/28 02:14:30;;;;;;;25.95;12.50;;;;;;;9.68;93.09;101878.09;5053027;28;20017;-72
2021/10/28 02:16:56;;;;;;;20.27;11.68;;;;;;;9.64;92.94;101871.63;5052980;28;20113;-71
2021/10/28 02:19:21;;;;;;;26.00;12.85;;;;;;;9.59;93.20;101871.28;5053326;28;20378;-71
2021/10/28 02:21:46;;;;;;;26.05;11.98;;;;;;;9.62;93.02;101865.00;5052854;28;20048;-71
2021/10/28 02:24:11;;;;;;;21.50;11.98;;;;;;;9.59;93.12;101863.53;5037807;28;20033;-71
2021/10/28 02:26:37;;;;;;;22.20;12.13;;;;;;;9.62;92.83;101867.59;5057402;28;20024;-71
2021/10/28 02:29:03;;;;;;;21.80;11.95;;;;;;;9.55;93.07;101859.66;5057060;28;20070;-71
2021/10/28 02:31:31;;;;;;;23.52;11.82;;;;;;;9.61;92.76;101851.31;5038967;28;20071;-71
2021/10/28 02:33:56;;;;;;;23.52;11.85;;;;;;;9.51;93.46;101858.34;5056720;28;20025;-71
2021/10/28 02:36:22;;;;;;;19.27;11.23;;;;;;;9.53;93.06;101858.19;5056701;28;20075;-71
2021/10/28 02:38:47;;;;;;;18.10;10.85;;;;;;;9.49;93.14;101853.34;5056532;28;20371;-72
2021/10/28 02:41:13;;;;;;;23.88;11.73;;;;;;;9.52;93.02;101853.97;5056570;28;20100;-72
2021/10/28 02:43:38;;;;;;;18.58;11.65;;;;;;;9.57;92.55;101851.75;5056467;28;20060;-72
2021/10/28 02:46:03;;;;;;;20.40;11.05;;;;;;;9.54;92.75;101858.03;5038614;28;20021;-73
2021/10/28 02:48:29;;;;;;;19.55;11.70;;;;;;;9.51;92.75;101860.13;5038551;28;20070;-72
2021/10/28 02:50:54;;;;;;;20.02;10.93;;;;;;;9.46;92.95;101853.63;5056277;28;20029;-72
2021/10/28 02:53:19;;;;;;;22.27;11.05;;;;;;;9.46;92.75;101851.03;5056429;28;20028;-72
2021/10/28 02:55:45;;;;;;;19.15;10.60;;;;;;;9.48;92.82;101850.91;5056220;28;20074;-72
2021/10/28 02:58:11;;;;;;;18.55;11.02;;;;;;;9.43;93.34;101843.59;5056239;28;20036;-72
2021/10/28 03:00:37;;;;;;;20.88;11.15;;;;;;;9.48;93.00;101836.22;5038357;28;20025;-72
2021/10/28 03:03:02;;;;;;;18.65;10.27;;;;;;;9.47;92.63;101841.56;5056240;28;20025;-72
2021/10/28 03:05:28;;;;;;;19.50;10.48;;;;;;;9.45;92.76;101839.13;5056093;28;20035;-72
2021/10/28 03:07:54;;;;;;;27.15;10.43;;;;;;;9.50;92.67;101841.25;5038236;28;20467;-72
2021/10/28 03:10:19;;;;;;;17.02;10.88;;;;;;;9.51;92.22;101824.78;5056312;28;20410;-72
2021/10/28 03:12:46;;;;;;;21.50;9.98;;;;;;;9.46;92.35;101829.59;5055901;28;20021;-72
2021/10/28 03:15:13;;;;;;;17.02;10.02;;;;;;;9.40;92.71;101828.44;5056115;28;20070;-72
2021/10/28 03:28:01;;;;;;;19.75;9.93;;;;;;;9.34;92.72;101818.72;5055723;28;20025;-72
2021/10/28 03:30:27;;;;;;;17.08;9.40;;;;;;;9.37;92.89;101822.78;5037779;28;20025;-73
2021/10/28 03:32:52;;;;;;;15.30;9.45;;;;;;;9.36;92.43;101814.25;5055536;28;20104;-73
2021/10/28 03:35:18;;;;;;;15.70;9.57;;;;;;;9.27;92.83;101817.75;5054812;28;20063;-72
2021/10/28 04:31:01;;;;;;;20.50;9.40;;;;;;;9.13;92.33;101784.78;5055010;28;20150;-73
2021/10/28 04:33:27;;;;;;;19.25;9.05;;;;;;;9.14;91.78;101781.22;5036550;28;20135;-73
2021/10/28 04:35:53;;;;;;;14.05;9.27;;;;;;;9.13;92.20;101779.63;5054294;28;20028;-73
2021/10/28 04:38:18;;;;;;;16.92;9.02;;;;;;;9.16;91.80;101769.81;5036455;28;20043;-73
2021/10/28 04:40:43;;;;;;;18.90;8.90;;;;;;;9.11;91.52;101782.34;5036394;28;20021;-73
2021/10/28 04:43:08;;;;;;;16.05;8.77;;;;;;;9.09;92.29;101786.03;5054207;28;20078;-73
2021/10/28 04:45:34;;;;;;;14.88;8.82;;;;;;;9.05;92.31;101782.94;5036087;28;20024;-72
2021/10/28 04:47:59;;;;;;;15.20;9.02;;;;;;;9.09;91.43;101783.44;5054148;28;20017;-73
2021/10/28 04:50:25;;;;;;;14.43;8.35;;;;;;;9.06;91.69;101769.09;5036295;28;20063;-73
2021/10/28 04:52:50;;;;;;;14.23;8.88;;;;;;;9.00;92.05;101773.09;5054045;28;20029;-73
2021/10/28 04:55:15;;;;;;;18.13;8.82;;;;;;;9.00;91.31;101759.38;5053937;28;20031;-73
2021/10/28 04:57:41;;;;;;;14.30;8.63;;;;;;;8.98;91.87;101772.44;5053989;28;20364;-73
2021/10/28 05:00:07;;;;;;;18.38;8.90;;;;;;;8.90;92.20;101769.81;5054198;28;20226;-72
2021/10/28 05:02:32;;;;;;;18.23;9.25;;;;;;;8.82;92.46;101767.19;5053938;28;20029;-72
2021/10/28 05:04:58;;;;;;;13.27;8.52;;;;;;;8.86;92.28;101763.34;5053846;28;20483;-73
2021/10/28 05:07:23;;;;;;;15.60;8.82;;;;;;;8.82;91.66;101770.56;5053708;28;20025;-74
2021/10/28 05:09:49;;;;;;;17.63;8.75;;;;;;;8.92;91.66;101756.75;5053762;28;20137;-73
2021/10/28 05:12:15;;;;;;;13.00;8.88;;;;;;;8.92;91.29;101762.75;5035854;28;20047;-72
2021/10/28 05:14:40;;;;;;;15.70;8.88;;;;;;;8.88;91.76;101765.75;5054237;28;20033;-73
2021/10/28 05:17:06;;;;;;;12.73;8.77;;;;;;;8.91;91.00;101758.53;5053697;28;20426;-72
2021/10/28 05:19:37;;;;;;;18.27;8.82;;;;;;;8.84;91.50;101767.84;5054125;28;20032;-73
2021/10/28 05:22:02;;;;;;;14.00;8.80;;;;;;;8.71;91.37;101755.34;5053494;28;20045;-73
2021/10/28 05:24:28;;;;;;;19.20;8.32;;;;;;;8.72;91.29;101761.31;5058199;28;20039;-72
2021/10/28 05:26:53;;;;;;;20.20;8.55;;;;;;;8.73;91.53;101768.88;5039480;28;20025;-73
2021/10/28 05:29:19;;;;;;;18.67;8.98;;;;;;;8.75;92.00;101766.19;5035629;28;20150;-72
2021/10/28 05:31:44;;;;;;;13.05;8.40;;;;;;;8.68;91.39;101772.88;5035638;28;20025;-73
2021/10/28 05:34:09;;;;;;;17.55;8.38;;;;;;;8.68;92.05;101768.53;5038082;28;20111;-73
2021/10/28 05:36:34;;;;;;;15.70;8.80;;;;;;;8.64;91.73;101774.16;5035453;28;20079;-72
2021/10/28 05:39:00;;;;;;;16.45;8.50;;;;;;;8.55;91.86;101752.66;5054614;28;20031;-74
2021/10/28 05:41:25;;;;;;;14.60;8.75;;;;;;;8.61;92.21;101770.09;5035476;28;20391;-73
2021/10/28 05:43:50;;;;;;;15.88;8.60;;;;;;;8.52;91.87;101763.25;5035564;28;20029;-73
2021/10/28 05:46:16;;;;;;;16.08;9.43;;;;;;;8.53;92.66;101764.88;5053306;28;20025;-72
2021/10/28 05:48:41;;;;;;;18.02;9.40;;;;;;;8.56;92.11;101762.81;5035473;28;20100;-73
2021/10/28 05:51:06;;;;;;;12.95;8.75;;;;;;;8.49;92.28;101756.66;5040260;28;20066;-72
2021/10/28 05:53:33;;;;;;;15.40;8.75;;;;;;;8.51;92.13;101759.06;5053045;28;20057;-72
2021/10/28 05:55:58;;;;;;;16.45;8.70;;;;;;;8.52;92.36;101760.69;5053050;28;20057;-72
2021/10/28 05:58:24;;;;;;;17.08;8.98;;;;;;;8.50;92.90;101760.03;5036730;28;20021;-73
2021/10/28 06:00:49;;;;;;;16.67;9.20;;;;;;;8.54;92.25;101759.56;5039397;28;20016;-72
2021/10/28 06:03:14;;;;;;;13.80;9.18;;;;;;;8.49;92.17;101763.56;5058009;28;20086;-72
2021/10/28 06:05:40;;;;;;;14.38;8.80;;;;;;;8.49;92.57;101766.16;5057606;28;20020;-72
2021/10/28 06:08:05;;;;;;;16.33;8.70;;;;;;;8.50;92.38;101767.75;5059003;28;20021;-73
2021/10/28 06:10:31;;;;;;;16.67;8.93;;;;;;;8.42;92.66;101770.25;5057141;28;20028;-74
2021/10/28 06:13:01;;;;;;;15.65;8.93;;;;;;;8.36;92.40;101769.84;5057023;28;20473;-73
2021/10/28 06:15:28;;;;;;;13.30;8.57;;;;;;;8.28;92.77;101748.38;5038991;28;20127;-73
2021/10/28 06:17:57;;;;;;;18.88;9.43;;;;;;;8.45;92.45;101757.88;5056966;28;20025;-73
2021/10/28 06:20:23;;;;;;;16.30;9.02;;;;;;;8.48;92.21;101757.59;5056677;28;20068;-73
2021/10/28 06:22:49;;;;;;;14.52;9.20;;;;;;;8.49;92.17;101755.84;5056857;28;20473;-72
2021/10/28 06:25:14;;;;;;;14.75;8.70;;;;;;;8.50;91.74;101753.09;5056823;28;20163;-72
2021/10/28 06:27:40;;;;;;;17.02;8.88;;;;;;;8.59;91.61;101749.63;5038892;28;20052;-73
2021/10/28 06:30:06;;;;;;;18.23;9.18;;;;;;;8.59;91.28;101752.19;5057334;28;20025;-74
2021/10/28 06:32:32;;;;;;;19.05;9.13;;;;;;;8.59;91.65;101744.47;5056500;28;20032;-73
2021/10/28 06:34:59;;;;;;;17.13;9.35;;;;;;;8.62;91.81;101748.50;5056879;28;20021;-72
2021/10/28 06:37:25;;;;;;;20.95;8.75;;;;;;;8.72;91.26;101751.00;5038678;28;20068;-72
2021/10/28 06:39:51;;;;;;;16.10;9.38;;;;;;;8.76;90.67;101753.13;5038644;28;20391;-72
2021/10/28 06:42:16;;;;;;;16.60;9.23;;;;;;;8.73;91.13;101743.13;5056408;28;20036;-72
2021/10/28 06:44:43;;;;;;;14.07;8.57;;;;;;;8.78;90.42;101742.69;5038419;28;20078;-72
2021/10/28 06:47:09;;;;;;;15.20;9.57;;;;;;;8.76;90.17;101739.44;5038411;28;20521;-73
2021/10/28 06:49:38;;;;;;;18.23;8.70;;;;;;;8.73;90.29;101730.22;5057207;28;20021;-75
2021/10/28 06:52:07;;;;;;;14.10;8.27;;;;;;;8.87;90.23;101741.75;5057085;28;20025;-74
2021/10/28 06:54:37;;;;;;;16.63;8.80;;;;;;;8.82;90.54;101741.41;5038290;28;20052;-72
2021/10/28 07:04:58;;;;;;;20.90;9.13;;;;;;;8.99;89.20;101742.31;5056851;28;20029;-73
2021/10/28 07:07:25;;;;;;;15.38;8.93;;;;;;;9.17;88.87;101744.81;5056171;28;20013;-73
2021/10/28 07:10:00;;;;;;;15.93;8.93;;;;;;;9.20;88.50;101749.66;5036705;28;20036;-73
2021/10/28 07:12:40;;;;;;;18.67;8.73;;;;;;;9.34;88.46;101743.13;5056044;28;20434;-72
2021/10/28 07:23:28;;;;;;;15.55;9.60;;;;;;;9.34;88.10;101740.53;5056564;28;20048;-73
2021/10/28 07:34:03;;;;;;;17.63;7.80;;;;;;;14.36;68.83;101739.78;5056475;28;20036;-72
2021/10/28 07:36:42;;;;;;;13.55;7.28;;;;;;;14.94;65.81;101732.56;5056084;28;20025;-73
2021/10/28 07:55:08;;;;;;;10.75;6.82;;;;;;;16.48;59.55;101724.06;5055326;28;20564;-73
2021/10/28 08:14:21;;;;;;;11.90;7.30;;;;;;;12.10;74.50;101701.47;5055128;28;20033;-73
2021/10/28 08:17:12;;;;;;;12.52;8.05;;;;;;;11.85;76.47;101698.22;5054983;28;20035;-73
2021/10/28 08:19:46;;;;;;;14.40;8.25;;;;;;;11.39;78.61;101685.22;5054957;28;20475;-73
2021/10/28 08:22:19;;;;;;;15.45;8.50;;;;;;;11.27;78.57;101689.16;5054768;28;20044;-73
2021/10/28 08:30:07;;;;;;;13.65;8.18;;;;;;;10.97;80.95;101678.63;5055223;28;20043;-73
2021/10/28 08:32:33;;;;;;;12.25;8.68;;;;;;;10.89;81.54;101670.91;5054733;28;20031;-73
2021/10/28 08:35:01;;;;;;;15.05;8.52;;;;;;;10.95;80.93;101674.59;5054523;28;20436;-72
2021/10/28 08:37:34;;;;;;;14.10;8.50;;;;;;;10.84;82.00;101671.38;5054606;28;20407;-72
2021/10/28 08:39:59;;;;;;;16.17;8.90;;;;;;;11.96;78.55;101677.09;5054544;28;20028;-73
2021/10/28 08:42:25;;;;;;;12.32;8.02;;;;;;;15.79;64.68;101688.75;5036271;28;20109;-74
2021/10/28 08:44:53;;;;;;;14.05;7.18;;;;;;;17.50;57.90;101675.50;5036331;28;20021;-74
2021/10/28 08:47:20;;;;;;;13.80;6.93;;;;;;;19.32;51.56;101692.66;5054423;28;20021;-73
2021/10/28 08:55:07;;;;;;;12.20;6.65;;;;;;;21.11;47.35;101658.03;5054699;28;20144;-73
2021/10/28 09:28:49;;;;;;;10.05;5.60;;;;;;;23.64;40.07;101620.38;5053784;28;20067;-75
2021/10/28 09:31:19;;;;;;;9.85;5.55;;;;;;;22.78;41.51;101609.88;5054012;28;20025;-75
2021/10/28 09:45:58;;;;;;;8.35;5.40;;;;;;;23.89;39.29;101583.88;5054226;28;20553;-75
2021/10/28 09:51:03;;;;;;;9.50;5.80;;;;;;;24.45;38.03;101573.53;5053908;28;20061;-74
2021/10/28 09:53:38;;;;;;;9.00;5.40;;;;;;;27.29;32.77;101574.75;5053796;28;20474;-75
2021/10/28 09:58:47;;;;;;;7.35;5.25;;;;;;;24.88;36.85;101576.78;5053858;28;20111;-74
2021/10/28 10:01:38;;;;;;;9.20;5.28;;;;;;;26.75;33.93;101571.19;5053146;28;20459;-73
2021/10/28 10:04:06;;;;;;;10.37;5.80;;;;;;;25.03;36.86;101570.69;5053036;28;20069;-74
2021/10/28 10:06:37;;;;;;;8.73;5.40;;;;;;;26.55;33.85;101561.53;5053024;28;20422;-73
2021/10/28 10:09:04;;;;;;;8.35;5.00;;;;;;;27.09;32.91;101553.69;5035112;28;20033;-73
2021/10/28 10:11:29;;;;;;;8.68;5.20;;;;;;;26.85;33.34;101554.44;5034994;28;20032;-73
2021/10/28 10:13:56;;;;;;;9.18;5.22;;;;;;;26.82;32.47;101546.25;5053093;28;20411;-74
2021/10/28 10:16:21;;;;;;;7.85;5.07;;;;;;;27.05;32.67;101550.03;5052860;28;20490;-72
2021/10/28 10:18:50;;;;;;;6.53;5.10;;;;;;;27.78;31.58;101546.38;5034939;28;20029;-74
2021/10/28 10:21:44;;;;;;;8.90;5.25;;;;;;;26.17;34.04;101547.16;5034584;28;20295;-74
2021/10/28 12:23:42;;;;;;;10.68;6.50;;;;;;;25.83;34.90;101351.94;5055441;28;20041;-74
2021/10/28 12:45:56;;;;;;;11.38;6.30;;;;;;;18.98;50.52;101345.78;5056542;28;20056;-74
2021/10/28 12:48:54;;;;;;;12.07;6.50;;;;;;;18.87;51.12;101340.31;5056651;28;20036;-75
2021/10/28 12:51:40;;;;;;;10.25;6.80;;;;;;;18.16;52.96;101342.03;5056675;28;20033;-75
2021/10/28 13:02:05;;;;;;;12.43;6.32;;;;;;;18.21;53.44;101333.47;5063912;28;20040;-74
2021/10/28 13:03:55;;;;;;;12.23;6.70;;;;;;;17.19;55.88;101320.28;5068421;28;20086;-74
2021/10/28 13:06:24;;;;;;;11.63;6.28;;;;;;;17.01;56.88;101316.66;5059308;28;20029;-76
2021/10/28 13:36:17;;;;;;;13.48;5.43;;;;;;;16.57;56.39;101249.78;5054045;28;20040;-74
2021/10/28 13:53:13;;;;;;;10.38;4.88;;;;;;;16.54;56.43;101256.22;5053887;28;20036;-74
2021/10/28 13:55:23;;;;;;;9.35;4.80;;;;;;;16.53;56.95;101256.44;5044972;28;20036;-73
2021/10/28 14:19:28;;;;;;;10.95;4.20;;;;;;;16.57;57.85;101241.94;5053791;28;20036;-74
2021/10/28 14:22:14;;;;;;;6.80;4.10;;;;;;;16.51;58.01;101238.38;5056693;28;20110;-74
2021/10/28 14:25:08;;;;;;;7.80;4.32;;;;;;;16.33;58.92;101235.75;5056771;28;20029;-74
2021/10/28 15:27:51;;;;;;;8.05;4.07;;;;;;;15.53;62.23;101216.22;5056450;28;20081;-72
2021/10/28 15:30:43;;;;;;;7.78;4.40;;;;;;;15.54;62.34;101207.41;5036901;28;20369;-73
2021/10/28 15:33:44;;;;;;;8.02;4.07;;;;;;;15.35;62.50;101183.06;5037754;28;20024;-74
2021/10/28 15:36:16;;;;;;;8.27;4.05;;;;;;;15.38;63.18;101209.69;5055371;28;20091;-74
2021/10/28 15:38:52;;;;;;;7.35;4.07;;;;;;;15.31;63.28;101210.53;5055834;28;20027;-73
2021/10/28 15:55:14;;;;;;;11.75;4.13;;;;;;;14.96;65.06;101191.84;5055920;28;20162;-74
2021/10/28 16:21:53;;;;;;;5.95;3.75;;;;;;;14.33;67.65;101179.34;5054875;28;20064;-73
2021/10/28 16:24:24;;;;;;;7.60;4.20;;;;;;;14.24;67.68;101167.53;5055142;28;20091;-74
2021/10/28 16:26:51;;;;;;;5.50;3.42;;;;;;;14.11;67.97;101151.97;5055422;28;20021;-74
2021/10/28 16:29:17;;;;;;;6.47;3.88;;;;;;;14.14;68.17;101161.97;5029665;28;20491;-75
2021/10/28 16:31:44;;;;;;;9.15;3.85;;;;;;;14.13;67.94;101153.38;5065892;28;20044;-73
2021/10/28 16:34:10;;;;;;;10.48;3.83;;;;;;;14.09;68.17;101153.97;5054567;28;20386;-74
2021/10/28 16:36:36;;;;;;;10.05;4.13;;;;;;;13.99;68.42;101157.78;5055293;28;20029;-75
2021/10/28 16:39:07;;;;;;;11.15;4.63;;;;;;;13.98;68.17;101139.78;5054965;28;20082;-73
2021/10/28 16:41:33;;;;;;;10.18;4.50;;;;;;;13.92;68.79;101137.97;5054005;28;20021;-76
2021/10/28 16:43:58;;;;;;;6.10;4.10;;;;;;;13.85;68.60;101137.19;5054539;28;20031;-74
2021/10/28 16:46:23;;;;;;;8.65;4.25;;;;;;;13.83;69.09;101141.78;5036612;28;20479;-74
2021/10/28 16:48:49;;;;;;;8.10;4.00;;;;;;;13.79;69.26;101140.59;5036271;28;20024;-75
2021/10/28 16:51:16;;;;;;;10.77;3.97;;;;;;;13.68;69.43;101139.38;5054311;28;20029;-73
2021/10/28 16:53:43;;;;;;;10.02;4.30;;;;;;;13.63;69.60;101136.56;5036327;28;20025;-74
2021/10/28 16:56:09;;;;;;;7.68;3.97;;;;;;;13.63;70.21;101133.97;5054155;28;20029;-74
2021/10/28 16:58:35;;;;;;;8.85;4.13;;;;;;;13.56;70.39;101135.78;5054186;28;20053;-74
2021/10/28 17:01:00;;;;;;;13.25;4.43;;;;;;;13.41;70.78;101144.53;5054599;28;20060;-74
2021/10/28 17:03:27;;;;;;;8.10;3.97;;;;;;;13.39;70.81;101145.72;5054102;28;20028;-76
2021/10/28 17:05:52;;;;;;;11.57;4.50;;;;;;;13.42;70.63;101147.94;5054006;28;20068;-77
2021/10/28 17:08:17;;;;;;;8.77;4.30;;;;;;;13.40;70.61;101136.94;5055641;28;20036;-75
2021/10/28 17:10:43;;;;;;;8.38;4.10;;;;;;;13.42;70.91;101129.75;5055772;28;20100;-76
2021/10/28 17:13:09;;;;;;;10.68;4.30;;;;;;;13.38;70.85;101133.72;5037067;28;20098;-76
2021/10/28 17:15:34;;;;;;;8.48;4.00;;;;;;;13.28;71.12;101132.31;5036207;28;20037;-75
2021/10/28 17:17:59;;;;;;;6.95;3.92;;;;;;;13.26;71.30;101126.53;5036477;28;20037;-75
2021/10/28 17:20:27;;;;;;;6.30;4.07;;;;;;;13.27;71.07;101119.53;5053679;28;20452;-73
2021/10/28 17:22:54;;;;;;;8.27;4.13;;;;;;;13.22;70.91;101120.09;5062405;28;20009;-74
2021/10/28 17:25:21;;;;;;;7.07;4.40;;;;;;;13.16;71.55;101125.28;5041632;28;20031;-74
2021/10/28 17:27:48;;;;;;;7.97;4.15;;;;;;;13.18;71.30;101121.50;5035833;28;20041;-73
2021/10/28 17:30:15;;;;;;;6.85;4.22;;;;;;;13.16;71.41;101120.88;5053432;28;20035;-73
2021/10/28 17:32:42;;;;;;;7.15;4.43;;;;;;;13.15;71.54;101128.84;5053355;28;20032;-74
2021/10/28 17:35:08;;;;;;;6.82;4.18;;;;;;;13.12;71.44;101131.81;5053534;28;20067;-74
2021/10/28 17:37:33;;;;;;;9.43;4.15;;;;;;;13.09;71.63;101133.03;5053263;28;20037;-75
2021/10/28 17:39:59;;;;;;;11.52;4.38;;;;;;;12.92;71.78;101113.59;5053441;28;20386;-74
2021/10/28 17:42:24;;;;;;;8.70;4.40;;;;;;;13.09;71.57;101125.25;5053514;28;20051;-74
2021/10/28 17:44:56;;;;;;;11.90;4.80;;;;;;;13.10;71.64;101132.03;5053295;28;20021;-74
2021/10/28 17:47:22;;;;;;;9.90;4.20;;;;;;;13.08;71.51;101128.81;5053550;28;20025;-74
2021/10/28 17:49:47;;;;;;;9.05;4.15;;;;;;;13.08;71.42;101129.63;5035434;28;20248;-73
2021/10/28 17:52:13;;;;;;;8.55;4.07;;;;;;;13.02;72.15;101133.00;5053399;28;20126;-73
2021/10/28 17:54:38;;;;;;;8.60;4.57;;;;;;;12.97;72.17;101130.19;5052884;28;20025;-73
2021/10/28 17:57:05;;;;;;;9.55;4.07;;;;;;;12.88;72.49;101119.16;5053216;28;20099;-74
2021/10/28 17:59:31;;;;;;;7.00;3.97;;;;;;;12.95;72.10;101119.22;5053219;28;20079;-74
2021/10/28 18:01:57;;;;;;;7.85;3.92;;;;;;;12.94;72.34;101119.41;5053304;28;20361;-74
2021/10/28 18:04:22;;;;;;;8.38;4.22;;;;;;;12.96;72.47;101115.63;5053278;28;20024;-74
2021/10/28 18:06:49;;;;;;;9.82;4.35;;;;;;;12.89;72.99;101114.81;5053151;28;20398;-74
2021/10/28 18:09:14;;;;;;;13.68;4.32;;;;;;;12.92;72.66;101111.00;5053692;28;20025;-74
2021/10/28 18:11:40;;;;;;;10.32;4.30;;;;;;;12.93;72.79;101115.22;5035423;28;20043;-74
2021/10/28 18:14:11;;;;;;;10.20;4.32;;;;;;;12.98;72.47;101103.25;5053385;28;20086;-73
2021/10/28 18:16:36;;;;;;;10.90;4.18;;;;;;;12.99;72.25;101107.44;5035135;28;20029;-74
2021/10/28 18:19:04;;;;;;;9.93;3.90;;;;;;;13.02;72.06;101112.25;5052891;28;20090;-74
2021/10/28 18:21:29;;;;;;;11.10;4.00;;;;;;;13.02;72.27;101103.66;5052984;28;20083;-74
2021/10/28 18:23:56;;;;;;;15.50;4.13;;;;;;;13.04;72.77;101097.28;5052950;28;20025;-74
2021/10/28 18:26:25;;;;;;;8.50;4.30;;;;;;;13.02;72.26;101096.69;5059366;28;20074;-74
2021/10/28 18:28:51;;;;;;;12.35;4.32;;;;;;;13.03;73.12;101102.66;5035017;28;20040;-74
2021/10/28 18:31:17;;;;;;;10.20;4.05;;;;;;;12.93;72.21;101084.88;5035242;28;20017;-74
2021/10/28 18:33:43;;;;;;;9.32;4.68;;;;;;;13.04;72.57;101114.66;5052874;28;20032;-74
2021/10/28 18:36:11;;;;;;;7.22;4.03;;;;;;;13.06;72.42;101117.84;5052922;28;20035;-75
2021/10/28 18:38:37;;;;;;;8.57;4.10;;;;;;;12.96;72.68;101105.25;5052972;28;20392;-74
2021/10/28 18:41:07;;;;;;;10.05;4.40;;;;;;;12.97;73.07;101108.63;5052811;28;20463;-74
2021/10/28 18:43:32;;;;;;;12.15;4.95;;;;;;;13.04;72.43;101107.66;5034320;28;20033;-75
2021/10/28 18:45:58;;;;;;;7.80;4.25;;;;;;;13.00;72.97;101105.66;5036115;28;20083;-75
2021/10/28 18:48:25;;;;;;;6.78;3.92;;;;;;;12.97;73.08;101096.44;5053041;28;20078;-74
2021/10/28 18:50:50;;;;;;;9.50;4.07;;;;;;;12.94;73.13;101099.44;5034963;28;20044;-74
2021/10/28 18:53:16;;;;;;;9.05;4.25;;;;;;;12.99;72.83;101098.88;5052679;28;20475;-74
2021/10/28 18:55:41;;;;;;;11.27;4.05;;;;;;;12.93;73.12;101090.06;5034843;28;20067;-74
2021/10/28 18:58:08;;;;;;;7.32;4.05;;;;;;;12.90;73.27;101085.28;5034760;28;20025;-74
2021/10/28 19:00:33;;;;;;;8.73;4.25;;;;;;;12.87;73.54;101088.25;5052695;28;20021;-74
2021/10/28 19:02:59;;;;;;;15.07;4.22;;;;;;;12.83;73.34;101082.66;5054457;28;20103;-75
2021/10/28 19:05:25;;;;;;;11.05;4.25;;;;;;;12.85;73.44;101091.03;5053865;28;20475;-75
2021/10/28 19:07:52;;;;;;;9.68;4.10;;;;;;;12.85;73.49;101091.03;5038507;28;20020;-74
2021/10/28 19:10:18;;;;;;;8.77;4.07;;;;;;;12.87;73.46;101096.03;5038259;28;20029;-73
2021/10/28 19:12:44;;;;;;;9.57;4.35;;;;;;;12.86;73.36;101092.66;5038212;28;20024;-74
2021/10/28 19:15:11;;;;;;;6.97;4.10;;;;;;;12.72;73.17;101080.63;5058621;28;20485;-77
2021/10/28 19:17:37;;;;;;;8.73;4.35;;;;;;;12.77;73.27;101096.38;5047448;28;20033;-75
2021/10/28 19:20:04;;;;;;;10.02;4.43;;;;;;;12.74;73.44;101080.41;5063462;28;20053;-74
2021/10/28 19:22:31;;;;;;;11.98;4.15;;;;;;;12.81;73.38;101086.44;5064828;28;20031;-74
2021/10/28 19:25:02;;;;;;;9.95;4.10;;;;;;;12.65;73.86;101083.16;5055913;28;20040;-74
2021/10/28 19:27:27;;;;;;;8.02;3.80;;;;;;;12.57;73.66;101061.78;5055968;28;20025;-74
2021/10/28 19:30:07;;;;;;;7.10;4.28;;;;;;;12.70;73.91;101090.38;5058893;28;20025;-74
2021/10/28 19:32:34;;;;;;;8.00;4.50;;;;;;;12.71;73.95;101084.19;5056025;28;20029;-74
2021/10/28 19:35:00;;;;;;;7.05;4.28;;;;;;;12.71;73.77;101083.41;5057112;28;20079;-74
2021/10/28 19:37:37;;;;;;;11.07;4.43;;;;;;;12.60;74.01;101082.16;5037795;28;20021;-74
2021/10/28 19:47:31;;;;;;;7.72;4.43;;;;;;;12.60;73.82;101076.97;5056270;28;20114;-74